Time;durP1;ratioP1;P1;durP2;ratioP2;P2;SDS_P1;SDS_P2;PMS_P1;PMS_P2;Temp;Humidity;BMP_temperature;BMP_pressure;BME280_temperature;BME280_humidity;BME280_pressure;Samples;Min_cycle;Max_cycle;Signal;HPM_P1;HPM_P2
2023/05/25 00:02:23;;;;;;;10.52;4.90;;;9.50;99.90;;;;;;5073034;28;20856;-71
2023/05/25 00:04:50;;;;;;;13.50;5.65;;;9.50;99.90;;;;;;5073874;28;20412;-70
2023/05/25 00:07:17;;;;;;;12.18;6.05;;;9.50;99.90;;;;;;5073445;28;20053;-70
2023/05/25 00:09:45;;;;;;;12.98;5.20;;;9.50;99.90;;;;;;5054984;28;20135;-70
2023/05/25 00:12:12;;;;;;;15.50;5.20;;;9.50;99.90;;;;;;5053747;28;20053;-70
2023/05/25 00:14:40;;;;;;;13.23;6.00;;;9.50;99.90;;;;;;5055350;28;20126;-70
2023/05/25 00:17:09;;;;;;;16.05;5.85;;;9.50;99.90;;;;;;5054822;28;20059;-69
2023/05/25 00:19:36;;;;;;;10.77;5.18;;;10.40;99.90;;;;;;5055527;28;20049;-71
2023/05/25 00:22:03;;;;;;;16.30;5.82;;;9.40;99.90;;;;;;5055607;28;20450;-69
2023/05/25 00:24:31;;;;;;;14.15;5.90;;;9.40;99.90;;;;;;5054609;28;20056;-70
2023/05/25 00:26:58;;;;;;;14.07;5.28;;;9.40;99.90;;;;;;5073244;28;20049;-70
2023/05/25 00:29:25;;;;;;;14.10;5.97;;;9.30;99.90;;;;;;5054838;28;20455;-70
2023/05/25 00:31:54;;;;;;;11.07;4.78;;;9.30;99.90;;;;;;5072782;28;20097;-70
2023/05/25 00:34:21;;;;;;;10.80;5.20;;;9.30;99.90;;;;;;5073321;28;20045;-70
2023/05/25 00:36:48;;;;;;;13.23;5.70;;;9.70;99.90;;;;;;5053361;28;20048;-69
2023/05/25 00:39:15;;;;;;;12.75;5.40;;;9.20;99.90;;;;;;5054449;28;20458;-70
2023/05/25 00:41:44;;;;;;;14.70;6.47;;;8.90;99.90;;;;;;5073360;28;20412;-70
2023/05/25 00:44:13;;;;;;;13.13;4.93;;;9.10;99.90;;;;;;5054678;28;20044;-70
2023/05/25 00:46:47;;;;;;;10.60;5.47;;;9.10;99.90;;;;;;5072993;28;20048;-69
2023/05/25 00:49:16;;;;;;;12.65;5.70;;;9.10;99.90;;;;;;5055127;28;20500;-69
2023/05/25 00:51:46;;;;;;;13.77;5.90;;;9.10;99.90;;;;;;5054581;28;20056;-69
2023/05/25 00:54:14;;;;;;;13.57;5.93;;;9.10;99.90;;;;;;5054839;28;20635;-70
2023/05/25 00:56:46;;;;;;;10.82;5.03;;;9.70;99.90;;;;;;5054811;28;20055;-70
2023/05/25 00:59:17;;;;;;;13.48;5.55;;;9.10;99.90;;;;;;5070483;28;20419;-69
2023/05/25 01:01:46;;;;;;;15.80;5.75;;;9.00;99.90;;;;;;5053052;28;20056;-69
2023/05/25 01:04:18;;;;;;;11.10;4.88;;;9.00;99.90;;;;;;5072587;28;20051;-70
2023/05/25 01:06:49;;;;;;;17.27;6.18;;;9.00;99.90;;;;;;5071995;28;20059;-69
2023/05/25 01:09:17;;;;;;;;;;;9.00;99.90;;;;;;5072840;28;20063;-70
2023/05/25 01:11:49;;;;;;;13.90;5.55;;;9.00;99.90;;;;;;5072502;28;20398;-69
2023/05/25 01:14:19;;;;;;;13.93;5.70;;;8.90;99.90;;;;;;5054138;28;20553;-70
2023/05/25 01:16:46;;;;;;;;;;;8.90;99.90;;;;;;5055102;28;20052;-68
2023/05/25 01:19:15;;;;;;;10.75;5.22;;;8.90;99.90;;;;;;5054481;28;19920;-69
2023/05/25 01:21:48;;;;;;;12.80;5.57;;;8.90;99.90;;;;;;5053933;28;20052;-69
2023/05/25 01:24:21;;;;;;;10.02;5.07;;;8.90;99.90;;;;;;5054216;28;20078;-69
2023/05/25 01:26:55;;;;;;;17.83;6.22;;;8.90;99.90;;;;;;5053652;28;20068;-69
2023/05/25 01:29:24;;;;;;;14.95;5.63;;;9.00;99.90;;;;;;5054581;28;20049;-68
2023/05/25 01:31:53;;;;;;;14.18;5.95;;;8.90;99.90;;;;;;5052544;28;20052;-69
2023/05/25 01:34:21;;;;;;;18.52;5.70;;;8.90;99.90;;;;;;5053635;28;20053;-69
2023/05/25 01:36:50;;;;;;;14.65;6.65;;;9.70;99.90;;;;;;5054057;28;20048;-69
2023/05/25 01:39:17;;;;;;;10.15;5.28;;;8.80;99.90;;;;;;5054369;28;20089;-69
2023/05/25 01:41:44;;;;;;;13.82;6.15;;;8.80;99.90;;;;;;5071653;28;20119;-70
2023/05/25 01:44:11;;;;;;;17.77;6.38;;;8.90;99.90;;;;;;5069970;28;20037;-70
2023/05/25 01:46:40;;;;;;;19.10;6.22;;;9.30;99.90;;;;;;5054062;28;20489;-70
2023/05/25 01:49:17;;;;;;;11.77;5.72;;;9.10;99.90;;;;;;5071594;28;20504;-69
2023/05/25 01:51:56;;;;;;;12.10;5.82;;;9.00;99.90;;;;;;5053256;28;20468;-70
2023/05/25 01:54:28;;;;;;;18.23;7.03;;;9.90;99.90;;;;;;5071519;28;20103;-70
2023/05/25 01:57:00;;;;;;;18.35;7.00;;;9.10;99.90;;;;;;5053615;28;20056;-70
2023/05/25 01:59:29;;;;;;;13.00;6.32;;;9.10;99.90;;;;;;5053966;28;20508;-70
2023/05/25 02:01:58;;;;;;;9.43;5.88;;;9.80;99.90;;;;;;5069633;28;20056;-70
2023/05/25 02:04:26;;;;;;;16.10;6.68;;;9.00;99.90;;;;;;5072098;28;20118;-70
2023/05/25 02:06:54;;;;;;;13.38;5.55;;;9.00;99.90;;;;;;5053972;28;20178;-70
2023/05/25 02:09:21;;;;;;;13.43;6.13;;;9.20;99.90;;;;;;5053101;28;20052;-70
2023/05/25 02:11:49;;;;;;;13.15;5.72;;;9.50;99.90;;;;;;5071698;28;20493;-70
2023/05/25 02:14:16;;;;;;;16.10;6.18;;;9.90;99.90;;;;;;5054048;28;20048;-70
2023/05/25 02:16:44;;;;;;;13.10;5.97;;;9.00;99.90;;;;;;5071372;28;20045;-69
2023/05/25 02:19:13;;;;;;;13.05;6.05;;;9.30;99.90;;;;;;5053815;28;20106;-70
2023/05/25 02:21:41;;;;;;;17.02;6.68;;;9.00;99.90;;;;;;5069736;28;20051;-69
2023/05/25 02:24:09;;;;;;;16.15;6.95;;;9.00;99.90;;;;;;5053005;28;20052;-70
2023/05/25 02:26:37;;;;;;;14.55;5.90;;;9.10;99.90;;;;;;5053707;28;20106;-69
2023/05/25 02:29:04;;;;;;;14.43;6.03;;;9.10;99.90;;;;;;5053733;28;20048;-69
2023/05/25 02:31:31;;;;;;;13.20;5.80;;;9.60;99.90;;;;;;5071110;28;20075;-70
2023/05/25 02:33:58;;;;;;;18.73;6.47;;;9.20;99.90;;;;;;5053564;28;20056;-70
2023/05/25 02:36:26;;;;;;;20.45;6.88;;;9.10;99.90;;;;;;5053568;28;20060;-70
2023/05/25 02:38:53;;;;;;;14.32;6.55;;;9.10;99.90;;;;;;5071045;28;20124;-69
2023/05/25 02:41:23;;;;;;;16.40;6.25;;;9.00;99.90;;;;;;5053380;28;20053;-70
2023/05/25 02:43:50;;;;;;;16.40;6.65;;;9.00;99.90;;;;;;5070878;28;20502;-70
2023/05/25 02:46:17;;;;;;;21.48;7.93;;;9.60;99.90;;;;;;5053670;28;20079;-69
2023/05/25 02:48:44;;;;;;;15.05;6.53;;;8.90;99.90;;;;;;5053637;28;20489;-69
2023/05/25 02:51:11;;;;;;;14.55;5.72;;;8.90;99.90;;;;;;5052858;28;20060;-69
2023/05/25 02:53:38;;;;;;;11.95;6.47;;;8.90;99.90;;;;;;5074051;28;20063;-68
2023/05/25 02:56:05;;;;;;;13.75;7.13;;;8.90;99.90;;;;;;5074992;28;20492;-69
2023/05/25 02:58:33;;;;;;;12.10;6.32;;;8.80;99.90;;;;;;5074548;28;20055;-69
2023/05/25 03:01:00;;;;;;;14.38;6.20;;;8.80;99.90;;;;;;5074992;28;20056;-69
2023/05/25 03:03:27;;;;;;;15.95;6.20;;;8.80;99.90;;;;;;5056970;28;20519;-69
2023/05/25 03:05:57;;;;;;;13.23;5.82;;;8.80;99.90;;;;;;5056487;28;20052;-69
2023/05/25 03:08:24;;;;;;;14.18;7.00;;;8.80;99.90;;;;;;5054698;28;20060;-70
2023/05/25 03:10:51;;;;;;;12.75;6.20;;;9.20;99.90;;;;;;5074624;28;20099;-70
2023/05/25 03:13:19;;;;;;;12.93;6.80;;;8.70;99.90;;;;;;5056380;28;20110;-69
2023/05/25 03:15:47;;;;;;;12.90;7.05;;;9.30;99.90;;;;;;5074362;28;20098;-69
2023/05/25 03:18:15;;;;;;;11.60;7.05;;;8.70;99.90;;;;;;5056554;28;20056;-70
2023/05/25 03:20:42;;;;;;;23.17;6.85;;;8.70;99.90;;;;;;5055682;28;20048;-69
2023/05/25 03:23:09;;;;;;;16.40;7.13;;;8.80;99.90;;;;;;5056587;28;20441;-69
2023/05/25 03:25:36;;;;;;;16.48;7.20;;;8.70;99.90;;;;;;5056393;28;20048;-70
2023/05/25 03:28:04;;;;;;;16.58;6.97;;;8.80;99.90;;;;;;5074095;28;20488;-69
2023/05/25 03:30:31;;;;;;;25.15;8.10;;;8.80;99.90;;;;;;5056340;28;20064;-68
2023/05/25 03:32:59;;;;;;;15.43;7.43;;;8.80;99.90;;;;;;5056615;28;20412;-70
2023/05/25 03:35:26;;;;;;;16.08;7.63;;;8.90;99.90;;;;;;5056471;28;20049;-69
2023/05/25 03:37:53;;;;;;;15.23;7.82;;;8.80;99.90;;;;;;5056114;28;20048;-69
2023/05/25 03:40:20;;;;;;;18.65;8.00;;;8.90;99.90;;;;;;5055856;28;20508;-69
2023/05/25 03:42:47;;;;;;;16.67;7.63;;;8.90;99.90;;;;;;5074138;28;20056;-70
2023/05/25 03:45:14;;;;;;;13.80;7.55;;;8.90;99.90;;;;;;5073986;28;20062;-71
2023/05/25 03:47:41;;;;;;;13.88;7.43;;;8.90;99.90;;;;;;5055370;28;20048;-71
2023/05/25 03:50:10;;;;;;;17.30;7.95;;;9.00;99.90;;;;;;5049973;28;20098;-70
2023/05/25 03:52:37;;;;;;;17.90;7.72;;;9.00;99.90;;;;;;5050379;28;20049;-70
2023/05/25 03:55:05;;;;;;;13.70;6.43;;;9.10;99.90;;;;;;5070353;28;20098;-71
2023/05/25 03:57:32;;;;;;;24.13;7.65;;;9.20;99.90;;;;;;5055137;28;20048;-71
2023/05/25 03:59:59;;;;;;;17.92;8.15;;;9.20;99.90;;;;;;5070973;28;20051;-70
2023/05/25 04:02:26;;;;;;;13.32;7.68;;;9.30;99.90;;;;;;5053454;28;20052;-71
2023/05/25 04:04:54;;;;;;;14.52;7.13;;;9.40;99.90;;;;;;5049949;28;20048;-70
2023/05/25 04:07:23;;;;;;;19.23;8.77;;;9.40;99.90;;;;;;5052892;28;20052;-70
2023/05/25 04:09:50;;;;;;;15.95;7.55;;;9.50;99.90;;;;;;5053236;28;20408;-71
2023/05/25 04:12:17;;;;;;;17.45;8.93;;;9.60;99.90;;;;;;5052948;28;20052;-70
2023/05/25 04:14:44;;;;;;;20.17;7.97;;;9.50;99.90;;;;;;5054864;28;20484;-71
2023/05/25 04:17:12;;;;;;;15.60;7.82;;;10.00;99.90;;;;;;5070317;28;20045;-71
2023/05/25 04:19:38;;;;;;;15.85;8.40;;;10.20;99.90;;;;;;5071943;28;20045;-70
2023/05/25 04:22:05;;;;;;;15.25;8.25;;;9.70;99.90;;;;;;5052686;28;20048;-70
2023/05/25 04:24:34;;;;;;;19.55;8.32;;;9.70;99.90;;;;;;5072099;28;20044;-71
2023/05/25 04:27:01;;;;;;;16.70;8.38;;;9.80;99.90;;;;;;5069450;28;20135;-71
2023/05/25 04:29:28;;;;;;;17.60;8.82;;;9.80;99.90;;;;;;5052221;28;20118;-69
2023/05/25 04:31:55;;;;;;;17.25;8.30;;;9.80;99.90;;;;;;5052978;28;20086;-70
2023/05/25 04:34:22;;;;;;;18.63;7.72;;;9.90;99.90;;;;;;5072381;28;20067;-69
2023/05/25 04:36:49;;;;;;;16.23;8.23;;;9.90;99.90;;;;;;5052977;28;20067;-71
2023/05/25 04:39:16;;;;;;;18.67;8.95;;;11.00;99.90;;;;;;5054231;28;20102;-71
2023/05/25 04:41:45;;;;;;;15.25;7.60;;;10.10;99.90;;;;;;5069458;28;20044;-71
2023/05/25 04:44:12;;;;;;;15.45;7.78;;;10.50;99.90;;;;;;5051782;28;20037;-70
2023/05/25 04:46:39;;;;;;;16.48;8.52;;;10.10;99.90;;;;;;5069881;28;20555;-71
2023/05/25 04:49:08;;;;;;;15.40;7.85;;;10.20;99.90;;;;;;5053216;28;20056;-71
2023/05/25 04:51:35;;;;;;;13.93;7.43;;;10.10;99.90;;;;;;5051972;28;20518;-70
2023/05/25 04:54:02;;;;;;;17.35;8.57;;;10.10;99.90;;;;;;5070883;28;20044;-70
2023/05/25 04:56:29;;;;;;;15.95;8.35;;;10.10;99.90;;;;;;5071860;28;20049;-72
2023/05/25 04:58:58;;;;;;;18.77;8.55;;;10.30;99.90;;;;;;5069880;28;20056;-71
2023/05/25 05:01:25;;;;;;;15.32;8.43;;;10.40;99.90;;;;;;5053853;28;20056;-71
2023/05/25 05:03:52;;;;;;;17.65;8.68;;;10.30;99.90;;;;;;5068364;28;20106;-71
2023/05/25 05:06:19;;;;;;;21.25;9.30;;;10.40;99.90;;;;;;5068362;28;20082;-73
2023/05/25 05:08:46;;;;;;;17.80;8.50;;;10.50;99.90;;;;;;5069035;28;20143;-71
2023/05/25 05:11:13;;;;;;;20.17;8.98;;;10.60;99.90;;;;;;5071762;28;20055;-71
2023/05/25 05:13:39;;;;;;;18.85;8.52;;;10.70;99.90;;;;;;5050771;28;20044;-73
2023/05/25 05:16:08;;;;;;;19.17;8.48;;;10.90;99.90;;;;;;5069277;28;20036;-71
2023/05/25 05:18:35;;;;;;;18.75;8.77;;;11.00;99.90;;;;;;5050803;28;20052;-71
2023/05/25 05:21:02;;;;;;;19.35;8.75;;;11.20;99.90;;;;;;5069490;28;20052;-71
2023/05/25 05:23:29;;;;;;;20.92;8.13;;;11.40;99.90;;;;;;5069603;28;20059;-71
2023/05/25 05:25:56;;;;;;;16.95;8.77;;;11.60;99.90;;;;;;5052494;28;20045;-71
2023/05/25 05:28:26;;;;;;;15.75;7.93;;;11.70;99.90;;;;;;5050821;28;20515;-70
2023/05/25 05:30:53;;;;;;;16.88;8.68;;;12.10;99.90;;;;;;5053553;28;20430;-71
2023/05/25 05:33:22;;;;;;;17.90;8.32;;;12.00;99.90;;;;;;5067504;28;20052;-71
2023/05/25 05:35:49;;;;;;;15.25;8.90;;;12.10;99.90;;;;;;5050712;28;20068;-71
2023/05/25 05:38:16;;;;;;;17.63;7.95;;;12.80;99.90;;;;;;5053053;28;20049;-71
2023/05/25 05:40:43;;;;;;;17.02;7.68;;;12.40;99.90;;;;;;5048492;28;20515;-72
2023/05/25 05:43:12;;;;;;;16.45;8.57;;;12.60;99.90;;;;;;5071252;28;20492;-71
2023/05/25 05:45:39;;;;;;;14.73;7.22;;;12.70;99.90;;;;;;5069358;28;20040;-72
2023/05/25 05:48:08;;;;;;;19.00;7.32;;;12.80;99.90;;;;;;5070254;28;20083;-71
2023/05/25 05:50:36;;;;;;;14.93;6.97;;;12.90;99.90;;;;;;5050625;28;20075;-71
2023/05/25 05:53:03;;;;;;;12.18;6.30;;;13.90;99.90;;;;;;5053430;28;20044;-72
2023/05/25 05:55:30;;;;;;;15.60;6.78;;;13.10;99.90;;;;;;5051161;28;20041;-71
2023/05/25 05:57:57;;;;;;;14.02;7.28;;;13.30;99.90;;;;;;5053227;28;20048;-70
2023/05/25 06:00:24;;;;;;;16.38;6.50;;;13.30;99.90;;;;;;5069991;28;20094;-71
2023/05/25 06:02:52;;;;;;;16.08;6.32;;;13.40;99.90;;;;;;5052688;28;20045;-71
2023/05/25 06:05:19;;;;;;;15.52;6.13;;;13.50;99.90;;;;;;5051567;28;20051;-71
2023/05/25 06:07:48;;;;;;;12.73;5.25;;;13.60;99.90;;;;;;5053170;28;20052;-72
2023/05/25 06:10:15;;;;;;;20.40;4.93;;;13.70;99.90;;;;;;5066882;28;20048;-70
2023/05/25 06:12:41;;;;;;;11.60;3.80;;;13.80;99.90;;;;;;5053381;28;20067;-71
2023/05/25 06:15:09;;;;;;;22.23;4.22;;;13.80;99.90;;;;;;5049384;28;20053;-72
2023/05/25 06:17:36;;;;;;;15.65;4.18;;;14.00;99.90;;;;;;5071166;28;20044;-73
2023/05/25 06:20:05;;;;;;;13.75;4.40;;;14.00;99.90;;;;;;5052272;28;20052;-72
2023/05/25 06:22:32;;;;;;;13.25;4.15;;;14.30;99.90;;;;;;5051449;28;20131;-72
2023/05/25 06:25:01;;;;;;;13.32;4.22;;;14.40;99.90;;;;;;5069129;28;20048;-72
2023/05/25 06:27:28;;;;;;;11.50;4.65;;;14.50;99.90;;;;;;5052418;28;20060;-72
2023/05/25 06:29:55;;;;;;;12.45;3.92;;;14.60;99.90;;;;;;5054558;28;20084;-72
2023/05/25 06:32:21;;;;;;;7.18;3.55;;;14.70;99.90;;;;;;5055167;28;20076;-72
2023/05/25 06:34:48;;;;;;;10.32;4.13;;;14.80;99.90;;;;;;5056574;28;20549;-71
2023/05/25 06:37:15;;;;;;;9.68;4.38;;;14.90;99.90;;;;;;5072921;28;20553;-72
2023/05/25 06:39:43;;;;;;;13.25;3.97;;;15.70;99.90;;;;;;5056879;28;20110;-71
2023/05/25 06:42:11;;;;;;;9.88;3.92;;;15.00;99.90;;;;;;5073855;28;20126;-70
2023/05/25 06:44:38;;;;;;;10.25;3.28;;;15.00;99.90;;;;;;5073728;28;20079;-71
2023/05/25 06:47:05;;;;;;;11.38;3.97;;;15.00;99.90;;;;;;5050589;28;20045;-71
2023/05/25 06:49:32;;;;;;;15.57;4.85;;;15.10;99.90;;;;;;5056774;28;20060;-71
2023/05/25 06:51:59;;;;;;;9.35;4.00;;;15.10;99.90;;;;;;5069641;28;20070;-72
2023/05/25 06:54:27;;;;;;;12.05;3.50;;;15.30;99.90;;;;;;5075264;28;20057;-72
2023/05/25 06:56:54;;;;;;;13.27;3.65;;;15.60;99.90;;;;;;5073116;28;20516;-72
2023/05/25 06:59:22;;;;;;;13.38;4.07;;;15.60;99.90;;;;;;5074628;28;20067;-72
2023/05/25 07:01:49;;;;;;;17.25;4.68;;;15.60;99.90;;;;;;5074981;28;20491;-72
2023/05/25 07:04:16;;;;;;;18.88;5.00;;;15.50;99.90;;;;;;5074117;28;20044;-71
2023/05/25 07:06:43;;;;;;;17.08;5.22;;;15.50;99.90;;;;;;5075028;28;20044;-71
2023/05/25 07:09:11;;;;;;;14.15;5.57;;;15.60;99.90;;;;;;5072551;28;20496;-71
2023/05/25 07:11:38;;;;;;;11.82;4.10;;;16.00;99.90;;;;;;5056169;28;20305;-71
2023/05/25 07:14:05;;;;;;;17.00;5.07;;;16.50;99.90;;;;;;5057210;28;20055;-71
2023/05/25 07:16:33;;;;;;;15.27;5.75;;;16.80;99.90;;;;;;5074583;28;20507;-71
2023/05/25 07:19:00;;;;;;;14.35;4.93;;;16.90;99.90;;;;;;5055926;28;20052;-72
2023/05/25 07:21:27;;;;;;;15.45;5.25;;;17.00;99.90;;;;;;5074740;28;20052;-72
2023/05/25 07:23:54;;;;;;;17.83;5.20;;;17.20;99.90;;;;;;5056347;28;20098;-71
2023/05/25 07:26:22;;;;;;;16.30;4.80;;;17.40;99.90;;;;;;5056037;28;20468;-72
2023/05/25 07:28:49;;;;;;;14.38;4.20;;;17.50;99.90;;;;;;5056547;28;20048;-72
2023/05/25 07:31:16;;;;;;;15.38;4.78;;;17.60;99.90;;;;;;5074489;28;20485;-72
2023/05/25 07:33:44;;;;;;;21.42;5.18;;;17.80;99.90;;;;;;5055667;28;20049;-72
2023/05/25 07:36:11;;;;;;;17.73;4.47;;;18.30;99.90;;;;;;5074406;28;20048;-72
2023/05/25 07:38:38;;;;;;;15.70;4.60;;;18.90;99.90;;;;;;5074174;28;20041;-72
2023/05/25 07:41:05;;;;;;;12.00;3.92;;;19.40;99.90;;;;;;5055901;28;20127;-72
2023/05/25 07:43:32;;;;;;;20.00;4.80;;;19.90;99.90;;;;;;5074876;28;20048;-72
2023/05/25 07:46:00;;;;;;;14.57;4.50;;;19.80;96.10;;;;;;5057136;28;20048;-71
2023/05/25 07:48:27;;;;;;;11.43;3.72;;;19.10;98.80;;;;;;5056233;28;20093;-72
2023/05/25 07:50:55;;;;;;;11.00;3.67;;;19.50;99.90;;;;;;5056810;28;20053;-73
2023/05/25 07:53:22;;;;;;;13.30;4.47;;;20.20;99.90;;;;;;5056772;28;20488;-73
2023/05/25 07:55:49;;;;;;;14.10;3.75;;;20.70;98.10;;;;;;5055076;28;20094;-72
2023/05/25 07:58:16;;;;;;;12.82;3.92;;;21.20;97.80;;;;;;5055103;28;20519;-72
2023/05/25 08:00:43;;;;;;;19.73;4.60;;;21.60;96.90;;;;;;5054473;28;20052;-72
2023/05/25 08:03:10;;;;;;;16.80;4.97;;;21.10;95.70;;;;;;5056083;28;20484;-72
2023/05/25 08:05:38;;;;;;;17.23;5.05;;;20.30;95.00;;;;;;5055860;28;20048;-73
2023/05/25 08:08:07;;;;;;;13.63;4.90;;;20.20;95.10;;;;;;5055191;28;20053;-72
2023/05/25 08:10:34;;;;;;;16.80;4.85;;;20.60;95.00;;;;;;5055560;28;20488;-72
2023/05/25 08:13:01;;;;;;;13.63;4.35;;;21.00;93.30;;;;;;5051058;28;20480;-72
2023/05/25 08:15:28;;;;;;;14.63;4.88;;;21.30;93.70;;;;;;5055063;28;20055;-72
2023/05/25 08:17:55;;;;;;;20.00;5.15;;;21.30;93.30;;;;;;5071499;28;20044;-72
2023/05/25 08:20:23;;;;;;;20.35;5.38;;;21.40;92.80;;;;;;5072648;28;20500;-72
2023/05/25 08:22:52;;;;;;;15.75;4.97;;;21.20;92.40;;;;;;5051675;28;20052;-72
2023/05/25 08:25:21;;;;;;;12.45;4.10;;;21.50;92.10;;;;;;5073160;28;20044;-72
2023/05/25 08:27:48;;;;;;;11.45;4.43;;;21.70;91.70;;;;;;5073276;28;20080;-73
2023/05/25 08:30:15;;;;;;;12.27;4.50;;;22.00;91.30;;;;;;5054754;28;20052;-72
2023/05/25 08:32:42;;;;;;;14.02;3.88;;;22.00;90.20;;;;;;5055173;28;20056;-71
2023/05/25 08:35:09;;;;;;;13.30;4.78;;;21.80;90.40;;;;;;5072959;28;20076;-73
2023/05/25 08:37:38;;;;;;;13.70;4.10;;;22.30;89.90;;;;;;5054880;28;20080;-72
2023/05/25 08:40:08;;;;;;;14.90;4.68;;;22.70;89.80;;;;;;5053695;28;20044;-73
2023/05/25 08:42:36;;;;;;;10.57;4.07;;;22.70;87.80;;;;;;5054936;28;20079;-73
2023/05/25 08:45:04;;;;;;;12.65;4.57;;;23.00;87.40;;;;;;5054863;28;20114;-73
2023/05/25 08:47:33;;;;;;;18.73;5.15;;;23.10;86.90;;;;;;5054816;28;20455;-72
2023/05/25 08:50:03;;;;;;;12.43;4.45;;;22.70;87.30;;;;;;5053974;28;20512;-72
2023/05/25 08:52:34;;;;;;;14.35;4.43;;;22.20;88.20;;;;;;5071453;28;20090;-72
2023/05/25 08:55:05;;;;;;;13.43;4.60;;;21.90;85.90;;;;;;5052009;28;20041;-74
2023/05/25 08:57:38;;;;;;;12.60;4.20;;;21.60;87.10;;;;;;5054461;28;20116;-73
2023/05/25 09:00:09;;;;;;;11.43;4.05;;;21.60;88.20;;;;;;5054708;28;20105;-72
2023/05/25 09:02:41;;;;;;;16.10;4.18;;;20.90;85.60;;;;;;5054836;28;20056;-72
2023/05/25 09:05:08;;;;;;;13.93;3.83;;;20.70;87.30;;;;;;5052990;28;20093;-72
2023/05/25 09:07:36;;;;;;;12.82;4.78;;;20.90;88.90;;;;;;5054251;28;20048;-73
2023/05/25 09:10:03;;;;;;;12.10;4.43;;;21.20;88.30;;;;;;5054277;28;20049;-73
2023/05/25 09:12:31;;;;;;;15.88;4.30;;;21.40;87.90;;;;;;5070786;28;20496;-72
2023/05/25 09:14:59;;;;;;;11.63;4.13;;;21.30;89.20;;;;;;5055804;28;20103;-72
2023/05/25 09:17:27;;;;;;;12.13;3.97;;;21.00;88.80;;;;;;5027602;28;20044;-72
2023/05/25 09:19:54;;;;;;;14.85;4.40;;;21.10;89.20;;;;;;5068834;28;20072;-72
2023/05/25 09:22:21;;;;;;;12.32;4.20;;;21.60;88.20;;;;;;5052340;28;20068;-73
2023/05/25 09:24:49;;;;;;;15.50;4.30;;;22.00;86.70;;;;;;5069981;28;20500;-71
2023/05/25 09:27:18;;;;;;;13.52;4.75;;;22.40;86.00;;;;;;5053710;28;20396;-72
2023/05/25 09:29:47;;;;;;;20.48;5.45;;;21.80;84.50;;;;;;5053729;28;20044;-73
2023/05/25 09:32:15;;;;;;;13.77;4.10;;;22.70;84.10;;;;;;5069012;28;20051;-72
2023/05/25 09:34:43;;;;;;;17.00;5.47;;;23.00;81.10;;;;;;5053681;28;20059;-71
2023/05/25 09:37:15;;;;;;;12.35;3.90;;;23.40;82.30;;;;;;5054102;28;20546;-72
2023/05/25 09:39:42;;;;;;;15.45;4.38;;;23.70;81.50;;;;;;5051396;28;20064;-73
2023/05/25 09:42:09;;;;;;;12.75;4.35;;;24.20;80.20;;;;;;5053992;28;20102;-73
2023/05/25 09:44:36;;;;;;;13.25;4.78;;;24.00;80.60;;;;;;5054120;28;20052;-72
2023/05/25 09:47:05;;;;;;;11.90;4.40;;;23.40;82.50;;;;;;5053080;28;20047;-73
2023/05/25 09:49:33;;;;;;;12.30;4.22;;;23.30;82.20;;;;;;5052440;28;20060;-72
2023/05/25 09:52:01;;;;;;;11.63;3.67;;;23.20;83.10;;;;;;5052238;28;20045;-72
2023/05/25 09:54:28;;;;;;;11.77;4.35;;;23.20;86.80;;;;;;5053327;28;20061;-71
2023/05/25 09:56:54;;;;;;;12.60;4.20;;;23.00;84.40;;;;;;5053877;28;20053;-73
2023/05/25 09:59:22;;;;;;;11.35;3.97;;;23.50;84.40;;;;;;5051768;28;20535;-72
2023/05/25 10:01:52;;;;;;;14.43;4.45;;;23.60;83.70;;;;;;5053028;28;20061;-72
2023/05/25 10:04:19;;;;;;;16.02;5.45;;;23.80;83.40;;;;;;5075658;28;20079;-72
2023/05/25 10:06:49;;;;;;;14.75;5.03;;;24.10;82.30;;;;;;5075877;28;20040;-72
2023/05/25 10:09:19;;;;;;;12.27;4.35;;;23.60;81.90;;;;;;5065552;28;20052;-71
2023/05/25 10:11:46;;;;;;;10.93;4.28;;;23.00;83.50;;;;;;5053844;28;20074;-72
2023/05/25 10:14:16;;;;;;;13.57;5.05;;;23.40;83.70;;;;;;5068587;28;20067;-71
2023/05/25 10:16:48;;;;;;;12.88;4.88;;;23.10;84.80;;;;;;5057491;28;20044;-71
2023/05/25 10:19:21;;;;;;;15.27;4.70;;;23.40;84.40;;;;;;5055398;28;20040;-72
2023/05/25 10:21:57;;;;;;;14.32;4.57;;;23.50;82.40;;;;;;5054618;28;20127;-72
2023/05/25 10:24:32;;;;;;;15.38;4.93;;;23.30;82.80;;;;;;5055195;28;20085;-72
2023/05/25 10:27:01;;;;;;;14.98;4.35;;;23.10;81.80;;;;;;5053575;28;20133;-72
2023/05/25 10:29:29;;;;;;;19.13;5.15;;;23.40;82.60;;;;;;5055476;28;20067;-73
2023/05/25 10:31:58;;;;;;;13.80;4.45;;;23.70;81.90;;;;;;5071361;28;20052;-71
2023/05/25 10:34:26;;;;;;;14.80;4.75;;;23.30;82.10;;;;;;5074296;28;20049;-71
2023/05/25 10:36:56;;;;;;;10.65;3.88;;;22.70;81.90;;;;;;5072463;28;20503;-70
2023/05/25 10:39:23;;;;;;;16.85;4.95;;;22.70;83.90;;;;;;5056691;28;20049;-71
2023/05/25 10:41:52;;;;;;;14.70;4.10;;;22.50;83.30;;;;;;5072081;28;20554;-71
2023/05/25 10:44:20;;;;;;;14.57;5.00;;;22.10;82.30;;;;;;5054041;28;20049;-70
2023/05/25 10:46:48;;;;;;;12.77;4.00;;;22.40;84.10;;;;;;5073053;28;20045;-71
2023/05/25 10:49:26;;;;;;;11.43;4.63;;;22.80;82.90;;;;;;5073905;28;20048;-72
2023/05/25 10:51:59;;;;;;;11.20;4.60;;;23.20;80.80;;;;;;5072066;28;20128;-71
2023/05/25 10:54:30;;;;;;;14.82;5.45;;;23.40;80.30;;;;;;5073536;28;20128;-72
2023/05/25 10:57:10;;;;;;;15.70;4.78;;;23.20;80.90;;;;;;5054414;28;20087;-72
2023/05/25 10:59:44;;;;;;;15.95;4.63;;;23.50;80.30;;;;;;5054963;28;20551;-72
2023/05/25 11:02:11;;;;;;;13.45;4.53;;;23.70;80.40;;;;;;5070612;28;20052;-73
2023/05/25 11:04:38;;;;;;;13.98;4.72;;;23.80;80.10;;;;;;5054531;28;20519;-73
2023/05/25 11:07:12;;;;;;;15.20;4.55;;;24.30;79.70;;;;;;5055839;28;20102;-73
2023/05/25 11:09:44;;;;;;;12.05;4.22;;;24.70;78.80;;;;;;5072806;28;20045;-72
2023/05/25 11:12:21;;;;;;;15.93;4.68;;;24.30;79.20;;;;;;5073319;28;20052;-72
2023/05/25 11:15:09;;;;;;;13.98;4.60;;;23.90;78.10;;;;;;5054603;28;20062;-71
2023/05/25 11:18:02;;;;;;;11.10;4.45;;;24.60;78.10;;;;;;5055899;28;20102;-72
2023/05/25 11:20:29;;;;;;;15.23;3.92;;;24.40;77.20;;;;;;5072646;28;20053;-72
2023/05/25 11:23:24;;;;;;;15.43;4.72;;;23.70;78.10;;;;;;5055898;28;20499;-71
2023/05/25 11:25:51;;;;;;;15.40;5.15;;;23.80;78.60;;;;;;5055924;28;20443;-71
2023/05/25 11:28:18;;;;;;;11.18;4.53;;;23.40;77.60;;;;;;5056180;28;20044;-71
2023/05/25 11:30:45;;;;;;;13.63;4.88;;;23.30;78.80;;;;;;5056582;28;20051;-72
2023/05/25 11:33:12;;;;;;;14.73;4.95;;;23.00;80.20;;;;;;5055874;28;20501;-72
2023/05/25 11:35:40;;;;;;;17.48;5.18;;;22.70;80.20;;;;;;5056344;28;20127;-72
2023/05/25 11:38:08;;;;;;;14.38;4.78;;;22.60;80.20;;;;;;5058119;28;20139;-73
2023/05/25 11:40:35;;;;;;;19.35;5.45;;;22.30;80.70;;;;;;5055308;28;20098;-72
2023/05/25 11:43:04;;;;;;;13.60;4.53;;;22.20;81.70;;;;;;5073812;28;20078;-73
2023/05/25 11:45:33;;;;;;;13.05;4.80;;;22.70;81.70;;;;;;5055617;28;20480;-72
2023/05/25 11:48:00;;;;;;;13.75;4.47;;;23.20;79.50;;;;;;5054366;28;20044;-72
2023/05/25 11:50:28;;;;;;;13.55;4.15;;;23.20;78.80;;;;;;5054626;28;20059;-72
2023/05/25 11:52:55;;;;;;;12.93;4.00;;;22.60;79.20;;;;;;5072862;28;20044;-71
2023/05/25 11:55:23;;;;;;;13.32;4.63;;;22.40;78.80;;;;;;5053564;28;20113;-71
2023/05/25 11:57:57;;;;;;;15.63;4.82;;;22.20;79.00;;;;;;5073401;28;20047;-72
2023/05/25 12:00:26;;;;;;;10.27;3.90;;;21.90;79.70;;;;;;5072212;28;20492;-72
2023/05/25 12:02:53;;;;;;;17.08;5.32;;;22.00;80.80;;;;;;5073253;28;20080;-71
2023/05/25 12:05:20;;;;;;;12.55;5.03;;;22.10;80.70;;;;;;5055845;28;20056;-72
2023/05/25 12:07:47;;;;;;;12.18;4.10;;;22.60;79.70;;;;;;5072452;28;20487;-72
2023/05/25 12:10:15;;;;;;;16.67;5.30;;;22.70;79.70;;;;;;5055260;28;20056;-71
2023/05/25 12:12:45;;;;;;;13.43;4.32;;;22.10;79.40;;;;;;5055298;28;20134;-71
2023/05/25 12:15:14;;;;;;;13.15;4.30;;;22.30;80.30;;;;;;5054737;28;20064;-72
2023/05/25 12:17:43;;;;;;;11.60;4.25;;;22.40;79.80;;;;;;5071356;28;20091;-72
2023/05/25 12:20:11;;;;;;;14.70;5.20;;;22.70;78.90;;;;;;5055285;28;20056;-72
2023/05/25 12:22:39;;;;;;;13.65;4.13;;;23.50;78.60;;;;;;5053646;28;20099;-72
2023/05/25 12:25:07;;;;;;;13.23;4.25;;;24.10;77.60;;;;;;5072032;28;20496;-72
2023/05/25 12:27:35;;;;;;;16.17;4.82;;;23.30;77.50;;;;;;5058058;28;20044;-71
2023/05/25 12:30:04;;;;;;;14.80;4.50;;;23.50;77.40;;;;;;5075854;28;20048;-72
2023/05/25 12:32:31;;;;;;;16.08;4.75;;;22.80;77.80;;;;;;5054581;28;20060;-72
2023/05/25 12:35:06;;;;;;;15.00;5.10;;;22.70;78.60;;;;;;5071968;28;20044;-72
2023/05/25 12:37:33;;;;;;;15.20;4.43;;;22.50;79.20;;;;;;5072492;28;20402;-72
2023/05/25 12:40:00;;;;;;;11.75;4.57;;;22.90;79.00;;;;;;5072739;28;20056;-71
2023/05/25 12:42:30;;;;;;;16.85;4.93;;;22.70;77.80;;;;;;5052961;28;20060;-72
2023/05/25 12:44:59;;;;;;;14.43;5.22;;;22.50;78.50;;;;;;5054352;28;20053;-72
2023/05/25 12:47:29;;;;;;;11.25;4.10;;;22.40;79.40;;;;;;5053462;28;20075;-72